sensor_id;sensor_type;location;lat;lon;timestamp;temperature;humidity
70151;DHT22;57517;43.562;19.540;2024-01-27T00:01:35;102.60;2227.20
70151;DHT22;57517;43.562;19.540;2024-01-27T00:04:01;102.70;2227.20
70151;DHT22;57517;43.562;19.540;2024-01-27T00:06:27;102.70;2227.20
70151;DHT22;57517;43.562;19.540;2024-01-27T00:08:53;102.80;2227.20
70151;DHT22;57517;43.562;19.540;2024-01-27T00:11:19;102.90;2227.20
70151;DHT22;57517;43.562;19.540;2024-01-27T00:13:45;103.00;2227.20
70151;DHT22;57517;43.562;19.540;2024-01-27T00:16:11;103.00;2227.20
70151;DHT22;57517;43.562;19.540;2024-01-27T00:18:38;103.00;2227.20
70151;DHT22;57517;43.562;19.540;2024-01-27T00:21:05;102.90;2227.20
70151;DHT22;57517;43.562;19.540;2024-01-27T00:23:31;103.00;2227.20
70151;DHT22;57517;43.562;19.540;2024-01-27T00:25:58;103.00;2227.20
70151;DHT22;57517;43.562;19.540;2024-01-27T00:28:24;102.70;2227.20
70151;DHT22;57517;43.562;19.540;2024-01-27T00:30:50;102.70;2227.20
70151;DHT22;57517;43.562;19.540;2024-01-27T00:33:16;102.80;2227.20
70151;DHT22;57517;43.562;19.540;2024-01-27T00:35:42;102.90;2227.20
70151;DHT22;57517;43.562;19.540;2024-01-27T00:38:07;102.90;2227.20
70151;DHT22;57517;43.562;19.540;2024-01-27T00:40:34;102.90;2227.20
70151;DHT22;57517;43.562;19.540;2024-01-27T00:42:59;102.80;2227.20
70151;DHT22;57517;43.562;19.540;2024-01-27T00:45:25;102.90;2227.20
70151;DHT22;57517;43.562;19.540;2024-01-27T00:47:53;103.00;2227.20
70151;DHT22;57517;43.562;19.540;2024-01-27T00:50:18;103.00;2227.20
70151;DHT22;57517;43.562;19.540;2024-01-27T00:52:44;103.10;2227.20
70151;DHT22;57517;43.562;19.540;2024-01-27T00:55:10;103.20;2227.20
70151;DHT22;57517;43.562;19.540;2024-01-27T00:57:36;103.20;2227.20
70151;DHT22;57517;43.562;19.540;2024-01-27T01:00:05;103.20;2227.20
70151;DHT22;57517;43.562;19.540;2024-01-27T01:02:32;103.30;2227.20
70151;DHT22;57517;43.562;19.540;2024-01-27T01:04:58;103.00;2227.20
70151;DHT22;57517;43.562;19.540;2024-01-27T01:07:23;103.10;2227.20
70151;DHT22;57517;43.562;19.540;2024-01-27T01:09:49;103.10;2227.20
70151;DHT22;57517;43.562;19.540;2024-01-27T01:12:15;103.20;2227.20
70151;DHT22;57517;43.562;19.540;2024-01-27T01:14:41;103.20;2227.20
70151;DHT22;57517;43.562;19.540;2024-01-27T01:17:07;103.30;2227.20
70151;DHT22;57517;43.562;19.540;2024-01-27T01:19:33;128.00;2252.80
70151;DHT22;57517;43.562;19.540;2024-01-27T01:21:59;128.00;2252.80
70151;DHT22;57517;43.562;19.540;2024-01-27T01:24:24;128.20;2252.80
70151;DHT22;57517;43.562;19.540;2024-01-27T01:26:50;128.00;2252.80
70151;DHT22;57517;43.562;19.540;2024-01-27T01:29:16;103.30;2227.20
70151;DHT22;57517;43.562;19.540;2024-01-27T01:31:42;128.00;2252.80
70151;DHT22;57517;43.562;19.540;2024-01-27T01:34:08;103.30;2227.20
70151;DHT22;57517;43.562;19.540;2024-01-27T01:36:34;103.30;2227.20
70151;DHT22;57517;43.562;19.540;2024-01-27T01:39:00;128.00;2252.80
70151;DHT22;57517;43.562;19.540;2024-01-27T01:41:25;128.10;2252.80
70151;DHT22;57517;43.562;19.540;2024-01-27T01:43:51;128.10;2252.80
70151;DHT22;57517;43.562;19.540;2024-01-27T01:46:18;128.20;2252.80
70151;DHT22;57517;43.562;19.540;2024-01-27T01:48:44;128.10;2252.80
70151;DHT22;57517;43.562;19.540;2024-01-27T01:51:11;128.20;2252.80
70151;DHT22;57517;43.562;19.540;2024-01-27T01:53:37;128.30;2252.80
70151;DHT22;57517;43.562;19.540;2024-01-27T01:56:03;128.40;2252.80
70151;DHT22;57517;43.562;19.540;2024-01-27T01:58:29;128.40;2252.80
70151;DHT22;57517;43.562;19.540;2024-01-27T02:01:00;128.40;2252.80
70151;DHT22;57517;43.562;19.540;2024-01-27T02:03:26;128.30;2252.80
70151;DHT22;57517;43.562;19.540;2024-01-27T02:05:52;128.20;2252.80
70151;DHT22;57517;43.562;19.540;2024-01-27T02:08:17;128.00;2252.80
70151;DHT22;57517;43.562;19.540;2024-01-27T02:10:43;103.30;2227.20
70151;DHT22;57517;43.562;19.540;2024-01-27T02:13:19;103.30;2227.20
70151;DHT22;57517;43.562;19.540;2024-01-27T02:15:46;103.10;2227.20
70151;DHT22;57517;43.562;19.540;2024-01-27T02:18:12;102.90;2227.20
70151;DHT22;57517;43.562;19.540;2024-01-27T02:20:38;102.90;2227.20
70151;DHT22;57517;43.562;19.540;2024-01-27T02:23:04;102.90;2227.20
70151;DHT22;57517;43.562;19.540;2024-01-27T02:25:33;102.80;2227.20
70151;DHT22;57517;43.562;19.540;2024-01-27T02:27:59;102.80;2227.20
70151;DHT22;57517;43.562;19.540;2024-01-27T02:30:25;102.70;2227.20
70151;DHT22;57517;43.562;19.540;2024-01-27T02:32:52;102.80;2227.20
70151;DHT22;57517;43.562;19.540;2024-01-27T02:35:17;102.80;2227.20
70151;DHT22;57517;43.562;19.540;2024-01-27T02:37:43;102.90;2227.20
70151;DHT22;57517;43.562;19.540;2024-01-27T02:40:10;102.80;2227.20
70151;DHT22;57517;43.562;19.540;2024-01-27T02:42:36;102.80;2227.20
70151;DHT22;57517;43.562;19.540;2024-01-27T02:45:03;102.80;2227.20
70151;DHT22;57517;43.562;19.540;2024-01-27T02:47:29;102.80;2227.20
70151;DHT22;57517;43.562;19.540;2024-01-27T02:49:55;102.80;2227.20
70151;DHT22;57517;43.562;19.540;2024-01-27T02:52:21;102.60;2227.20
70151;DHT22;57517;43.562;19.540;2024-01-27T02:54:47;102.60;2227.20
70151;DHT22;57517;43.562;19.540;2024-01-27T02:57:13;102.60;2227.20
70151;DHT22;57517;43.562;19.540;2024-01-27T02:59:40;102.60;2227.20
70151;DHT22;57517;43.562;19.540;2024-01-27T03:02:06;102.80;2227.20
70151;DHT22;57517;43.562;19.540;2024-01-27T03:04:32;102.90;2227.20
70151;DHT22;57517;43.562;19.540;2024-01-27T03:06:58;103.00;2227.20
70151;DHT22;57517;43.562;19.540;2024-01-27T03:09:24;103.10;2227.20
70151;DHT22;57517;43.562;19.540;2024-01-27T03:11:49;103.00;2227.20
70151;DHT22;57517;43.562;19.540;2024-01-27T03:14:15;102.90;2227.20
70151;DHT22;57517;43.562;19.540;2024-01-27T03:16:42;102.90;2227.20
70151;DHT22;57517;43.562;19.540;2024-01-27T03:19:08;103.10;2227.20
70151;DHT22;57517;43.562;19.540;2024-01-27T03:21:34;103.20;2227.20
70151;DHT22;57517;43.562;19.540;2024-01-27T03:24:00;128.00;2252.80
70151;DHT22;57517;43.562;19.540;2024-01-27T03:26:25;128.20;2252.80
70151;DHT22;57517;43.562;19.540;2024-01-27T03:28:51;128.10;2252.80
70151;DHT22;57517;43.562;19.540;2024-01-27T03:31:17;128.20;2252.80
70151;DHT22;57517;43.562;19.540;2024-01-27T03:33:43;128.20;2252.80
70151;DHT22;57517;43.562;19.540;2024-01-27T03:36:12;128.10;2252.80
70151;DHT22;57517;43.562;19.540;2024-01-27T03:38:42;128.10;2252.80
70151;DHT22;57517;43.562;19.540;2024-01-27T03:41:07;128.10;2252.80
70151;DHT22;57517;43.562;19.540;2024-01-27T03:43:34;128.20;2252.80
70151;DHT22;57517;43.562;19.540;2024-01-27T03:45:59;128.20;2252.80
70151;DHT22;57517;43.562;19.540;2024-01-27T03:48:25;128.20;2252.80
70151;DHT22;57517;43.562;19.540;2024-01-27T03:50:51;128.10;2252.80
70151;DHT22;57517;43.562;19.540;2024-01-27T03:53:17;128.20;2252.80
70151;DHT22;57517;43.562;19.540;2024-01-27T03:55:43;128.20;2252.80
70151;DHT22;57517;43.562;19.540;2024-01-27T03:58:08;128.20;2252.80
70151;DHT22;57517;43.562;19.540;2024-01-27T04:00:34;128.20;2252.80
70151;DHT22;57517;43.562;19.540;2024-01-27T04:03:00;128.20;2252.80
70151;DHT22;57517;43.562;19.540;2024-01-27T04:05:27;128.20;2252.80
70151;DHT22;57517;43.562;19.540;2024-01-27T04:07:53;128.00;2252.80
70151;DHT22;57517;43.562;19.540;2024-01-27T04:10:20;103.20;2227.20
70151;DHT22;57517;43.562;19.540;2024-01-27T04:12:45;103.00;2227.20
70151;DHT22;57517;43.562;19.540;2024-01-27T04:15:11;102.80;2227.20
70151;DHT22;57517;43.562;19.540;2024-01-27T04:17:37;102.40;2227.20
70151;DHT22;57517;43.562;19.540;2024-01-27T04:20:04;102.80;2227.20
70151;DHT22;57517;43.562;19.540;2024-01-27T04:22:30;103.00;2227.20
70151;DHT22;57517;43.562;19.540;2024-01-27T04:24:56;103.20;2227.20
70151;DHT22;57517;43.562;19.540;2024-01-27T04:27:22;128.00;2252.80
70151;DHT22;57517;43.562;19.540;2024-01-27T04:29:48;128.00;2252.80
70151;DHT22;57517;43.562;19.540;2024-01-27T04:32:14;128.20;2252.80
70151;DHT22;57517;43.562;19.540;2024-01-27T04:34:40;128.20;2252.80
70151;DHT22;57517;43.562;19.540;2024-01-27T04:37:06;128.20;2252.80
70151;DHT22;57517;43.562;19.540;2024-01-27T04:39:31;128.10;2252.80
70151;DHT22;57517;43.562;19.540;2024-01-27T04:41:57;128.10;2252.80
70151;DHT22;57517;43.562;19.540;2024-01-27T04:44:23;103.30;2227.20
70151;DHT22;57517;43.562;19.540;2024-01-27T04:46:49;103.30;2227.20
70151;DHT22;57517;43.562;19.540;2024-01-27T04:49:15;103.10;2227.20
70151;DHT22;57517;43.562;19.540;2024-01-27T04:51:41;102.80;2227.20
70151;DHT22;57517;43.562;19.540;2024-01-27T04:54:07;102.80;2227.20
70151;DHT22;57517;43.562;19.540;2024-01-27T04:56:33;102.70;2227.20
70151;DHT22;57517;43.562;19.540;2024-01-27T04:58:59;102.80;2227.20
70151;DHT22;57517;43.562;19.540;2024-01-27T05:01:25;103.00;2227.20
70151;DHT22;57517;43.562;19.540;2024-01-27T05:03:50;103.20;2227.20
70151;DHT22;57517;43.562;19.540;2024-01-27T05:06:16;128.00;2252.80
70151;DHT22;57517;43.562;19.540;2024-01-27T05:08:43;128.10;2252.80
70151;DHT22;57517;43.562;19.540;2024-01-27T05:11:09;128.20;2252.80
70151;DHT22;57517;43.562;19.540;2024-01-27T05:13:35;128.30;2252.80
70151;DHT22;57517;43.562;19.540;2024-01-27T05:16:03;128.30;2252.80
70151;DHT22;57517;43.562;19.540;2024-01-27T05:18:29;128.30;2252.80
70151;DHT22;57517;43.562;19.540;2024-01-27T05:20:55;128.30;2252.80
70151;DHT22;57517;43.562;19.540;2024-01-27T05:23:20;128.20;2252.80
70151;DHT22;57517;43.562;19.540;2024-01-27T05:25:46;128.30;2252.80
70151;DHT22;57517;43.562;19.540;2024-01-27T05:28:12;128.40;2252.80
70151;DHT22;57517;43.562;19.540;2024-01-27T05:30:38;128.50;2252.80
70151;DHT22;57517;43.562;19.540;2024-01-27T05:33:03;128.50;2252.80
70151;DHT22;57517;43.562;19.540;2024-01-27T05:35:29;128.50;2252.80
70151;DHT22;57517;43.562;19.540;2024-01-27T05:37:56;128.50;2252.80
70151;DHT22;57517;43.562;19.540;2024-01-27T05:40:21;128.30;2252.80
70151;DHT22;57517;43.562;19.540;2024-01-27T05:42:47;128.30;2252.80
70151;DHT22;57517;43.562;19.540;2024-01-27T05:45:14;128.30;2252.80
70151;DHT22;57517;43.562;19.540;2024-01-27T05:47:40;128.30;2252.80
70151;DHT22;57517;43.562;19.540;2024-01-27T05:50:07;128.20;2252.80
70151;DHT22;57517;43.562;19.540;2024-01-27T05:52:37;128.20;2252.80
70151;DHT22;57517;43.562;19.540;2024-01-27T05:55:03;128.20;2252.80
70151;DHT22;57517;43.562;19.540;2024-01-27T05:57:32;128.20;2252.80
70151;DHT22;57517;43.562;19.540;2024-01-27T05:59:57;128.00;2252.80
70151;DHT22;57517;43.562;19.540;2024-01-27T06:02:23;128.00;2252.80
70151;DHT22;57517;43.562;19.540;2024-01-27T06:04:49;103.30;2227.20
70151;DHT22;57517;43.562;19.540;2024-01-27T06:07:15;103.30;2227.20
70151;DHT22;57517;43.562;19.540;2024-01-27T06:09:41;103.30;2227.20
70151;DHT22;57517;43.562;19.540;2024-01-27T06:12:06;103.30;2227.20
70151;DHT22;57517;43.562;19.540;2024-01-27T06:14:32;103.30;2227.20
70151;DHT22;57517;43.562;19.540;2024-01-27T06:16:58;103.30;2227.20
70151;DHT22;57517;43.562;19.540;2024-01-27T06:19:25;103.20;2227.20
70151;DHT22;57517;43.562;19.540;2024-01-27T06:21:51;103.10;2227.20
70151;DHT22;57517;43.562;19.540;2024-01-27T06:24:17;103.10;2227.20
70151;DHT22;57517;43.562;19.540;2024-01-27T06:26:42;103.00;2227.20
70151;DHT22;57517;43.562;19.540;2024-01-27T06:29:08;103.00;2227.20
70151;DHT22;57517;43.562;19.540;2024-01-27T06:31:34;103.00;2227.20
70151;DHT22;57517;43.562;19.540;2024-01-27T06:33:59;103.10;2227.20
70151;DHT22;57517;43.562;19.540;2024-01-27T06:36:25;103.10;2227.20
70151;DHT22;57517;43.562;19.540;2024-01-27T06:38:52;103.20;2227.20
70151;DHT22;57517;43.562;19.540;2024-01-27T06:41:18;103.20;2227.20
70151;DHT22;57517;43.562;19.540;2024-01-27T06:43:44;103.30;2227.20
70151;DHT22;57517;43.562;19.540;2024-01-27T06:46:10;128.00;2252.80
70151;DHT22;57517;43.562;19.540;2024-01-27T06:48:35;128.00;2252.80
70151;DHT22;57517;43.562;19.540;2024-01-27T06:51:04;128.10;2252.80
70151;DHT22;57517;43.562;19.540;2024-01-27T06:53:30;128.00;2252.80
70151;DHT22;57517;43.562;19.540;2024-01-27T06:55:55;128.00;2252.80
70151;DHT22;57517;43.562;19.540;2024-01-27T06:58:21;128.00;2252.80
70151;DHT22;57517;43.562;19.540;2024-01-27T07:00:47;103.30;2227.20
70151;DHT22;57517;43.562;19.540;2024-01-27T07:03:13;128.10;2252.80
70151;DHT22;57517;43.562;19.540;2024-01-27T07:05:38;128.20;2252.80
70151;DHT22;57517;43.562;19.540;2024-01-27T07:08:07;128.50;2252.80
70151;DHT22;57517;43.562;19.540;2024-01-27T07:10:34;128.40;2252.80
70151;DHT22;57517;43.562;19.540;2024-01-27T07:13:00;128.70;2252.80
70151;DHT22;57517;43.562;19.540;2024-01-27T07:15:25;128.90;2252.80
70151;DHT22;57517;43.562;19.540;2024-01-27T07:17:52;128.90;2252.80
70151;DHT22;57517;43.562;19.540;2024-01-27T07:20:19;128.70;2252.80
70151;DHT22;57517;43.562;19.540;2024-01-27T07:22:49;128.60;2252.80
70151;DHT22;57517;43.562;19.540;2024-01-27T07:25:15;128.60;2252.80
70151;DHT22;57517;43.562;19.540;2024-01-27T07:27:41;153.70;2252.80
70151;DHT22;57517;43.562;19.540;2024-01-27T07:30:07;154.20;2252.80
70151;DHT22;57517;43.562;19.540;2024-01-27T07:32:36;180.00;2252.80
70151;DHT22;57517;43.562;19.540;2024-01-27T07:35:03;205.00;2227.20
70151;DHT22;57517;43.562;19.540;2024-01-27T07:37:31;230.40;2048.00
70151;DHT22;57517;43.562;19.540;2024-01-27T07:39:57;231.20;1817.60
70151;DHT22;57517;43.562;19.540;2024-01-27T07:42:22;256.50;1715.20
70151;DHT22;57517;43.562;19.540;2024-01-27T07:44:48;231.30;1740.80
70151;DHT22;57517;43.562;19.540;2024-01-27T07:47:15;231.00;1766.40
70151;DHT22;57517;43.562;19.540;2024-01-27T07:49:40;256.50;1740.80
70151;DHT22;57517;43.562;19.540;2024-01-27T07:52:06;282.10;1638.40
70151;DHT22;57517;43.562;19.540;2024-01-27T07:54:32;256.20;1664.00
70151;DHT22;57517;43.562;19.540;2024-01-27T07:57:00;256.40;1740.80
70151;DHT22;57517;43.562;19.540;2024-01-27T07:59:25;256.80;1843.20
70151;DHT22;57517;43.562;19.540;2024-01-27T08:01:51;256.60;1766.40
70151;DHT22;57517;43.562;19.540;2024-01-27T08:04:17;256.10;1817.60
70151;DHT22;57517;43.562;19.540;2024-01-27T08:06:50;282.10;1664.00
70151;DHT22;57517;43.562;19.540;2024-01-27T08:09:16;231.10;1715.20
70151;DHT22;57517;43.562;19.540;2024-01-27T08:11:42;256.30;1792.00
70151;DHT22;57517;43.562;19.540;2024-01-27T08:14:09;282.20;1587.20
70151;DHT22;57517;43.562;19.540;2024-01-27T08:16:35;282.00;1638.40
70151;DHT22;57517;43.562;19.540;2024-01-27T08:19:01;384.50;1408.00
70151;DHT22;57517;43.562;19.540;2024-01-27T08:21:27;333.40;1484.80
70151;DHT22;57517;43.562;19.540;2024-01-27T08:23:53;384.90;1331.20
70151;DHT22;57517;43.562;19.540;2024-01-27T08:26:19;512.00;1152.00
70151;DHT22;57517;43.562;19.540;2024-01-27T08:28:47;538.40;1024.00
70151;DHT22;57517;43.562;19.540;2024-01-27T08:31:12;588.80;972.80
70151;DHT22;57517;43.562;19.540;2024-01-27T08:33:38;588.90;1024.00
70151;DHT22;57517;43.562;19.540;2024-01-27T08:36:04;563.90;972.80
70151;DHT22;57517;43.562;19.540;2024-01-27T08:38:30;461.20;1126.40
70151;DHT22;57517;43.562;19.540;2024-01-27T08:40:57;436.10;1100.80
70151;DHT22;57517;43.562;19.540;2024-01-27T08:43:23;384.90;1228.80
70151;DHT22;57517;43.562;19.540;2024-01-27T08:45:48;333.70;1356.80
70151;DHT22;57517;43.562;19.540;2024-01-27T08:48:14;308.10;1484.80
70151;DHT22;57517;43.562;19.540;2024-01-27T08:50:40;307.40;1536.00
70151;DHT22;57517;43.562;19.540;2024-01-27T08:53:06;358.90;1459.20
70151;DHT22;57517;43.562;19.540;2024-01-27T08:55:32;384.70;1254.40
70151;DHT22;57517;43.562;19.540;2024-01-27T08:57:58;435.30;1254.40
70151;DHT22;57517;43.562;19.540;2024-01-27T09:00:24;384.50;1305.60
70151;DHT22;57517;43.562;19.540;2024-01-27T09:02:51;358.60;1382.40
70151;DHT22;57517;43.562;19.540;2024-01-27T09:05:17;461.50;1152.00
70151;DHT22;57517;43.562;19.540;2024-01-27T09:07:43;461.00;1177.60
70151;DHT22;57517;43.562;19.540;2024-01-27T09:10:09;435.30;1203.20
70151;DHT22;57517;43.562;19.540;2024-01-27T09:12:38;486.40;1177.60
70151;DHT22;57517;43.562;19.540;2024-01-27T09:15:04;435.40;1177.60
70151;DHT22;57517;43.562;19.540;2024-01-27T09:17:31;563.20;1049.60
70151;DHT22;57517;43.562;19.540;2024-01-27T09:19:57;640.30;921.60
70151;DHT22;57517;43.562;19.540;2024-01-27T09:22:23;615.20;921.60
70151;DHT22;57517;43.562;19.540;2024-01-27T09:27:15;768.90;742.40
70151;DHT22;57517;43.562;19.540;2024-01-27T09:29:42;691.50;768.00
70151;DHT22;57517;43.562;19.540;2024-01-27T09:32:09;666.50;742.40
70151;DHT22;57517;43.562;19.540;2024-01-27T09:34:35;691.20;768.00
70151;DHT22;57517;43.562;19.540;2024-01-27T09:37:01;640.80;768.00
70151;DHT22;57517;43.562;19.540;2024-01-27T09:39:27;615.00;819.20
70151;DHT22;57517;43.562;19.540;2024-01-27T09:41:54;538.20;947.20
70151;DHT22;57517;43.562;19.540;2024-01-27T09:44:21;487.00;1049.60
70151;DHT22;57517;43.562;19.540;2024-01-27T09:46:47;460.80;1126.40
70151;DHT22;57517;43.562;19.540;2024-01-27T09:49:14;410.00;1177.60
70151;DHT22;57517;43.562;19.540;2024-01-27T09:51:43;409.60;1228.80
70151;DHT22;57517;43.562;19.540;2024-01-27T09:54:09;384.10;1280.00
70151;DHT22;57517;43.562;19.540;2024-01-27T09:56:35;358.80;1356.80
70151;DHT22;57517;43.562;19.540;2024-01-27T09:59:01;410.50;1280.00
70151;DHT22;57517;43.562;19.540;2024-01-27T10:01:27;486.80;1075.20
70151;DHT22;57517;43.562;19.540;2024-01-27T10:03:54;615.30;870.40
70151;DHT22;57517;43.562;19.540;2024-01-27T10:11:23;896.00;640.00
70151;DHT22;57517;43.562;19.540;2024-01-27T10:13:57;921.80;614.40
70151;DHT22;57517;43.562;19.540;2024-01-27T10:16:25;947.40;563.20
70151;DHT22;57517;43.562;19.540;2024-01-27T10:19:01;947.40;537.60
70151;DHT22;57517;43.562;19.540;2024-01-27T10:21:27;973.30;512.00
70151;DHT22;57517;43.562;19.540;2024-01-27T10:23:54;972.80;486.40
70151;DHT22;57517;43.562;19.540;2024-01-27T10:26:19;922.40;486.40
70151;DHT22;57517;43.562;19.540;2024-01-27T10:28:57;947.80;460.80
70151;DHT22;57517;43.562;19.540;2024-01-27T10:31:27;947.60;486.40
70151;DHT22;57517;43.562;19.540;2024-01-27T10:33:53;922.10;460.80
70151;DHT22;57517;43.562;19.540;2024-01-27T10:36:20;921.80;460.80
70151;DHT22;57517;43.562;19.540;2024-01-27T10:38:46;947.60;460.80
70151;DHT22;57517;43.562;19.540;2024-01-27T10:41:12;972.90;486.40
70151;DHT22;57517;43.562;19.540;2024-01-27T10:43:43;972.90;460.80
70151;DHT22;57517;43.562;19.540;2024-01-27T10:46:09;973.00;460.80
70151;DHT22;57517;43.562;19.540;2024-01-27T10:48:36;973.40;435.20
70151;DHT22;57517;43.562;19.540;2024-01-27T10:51:08;973.10;460.80
70151;DHT22;57517;43.562;19.540;2024-01-27T10:53:35;998.60;460.80
70151;DHT22;57517;43.562;19.540;2024-01-27T10:56:03;921.60;460.80
70151;DHT22;57517;43.562;19.540;2024-01-27T10:58:35;922.50;435.20
70151;DHT22;57517;43.562;19.540;2024-01-27T11:01:13;973.10;435.20
70151;DHT22;57517;43.562;19.540;2024-01-27T11:03:40;973.30;435.20
70151;DHT22;57517;43.562;19.540;2024-01-27T11:06:06;972.80;435.20
70151;DHT22;57517;43.562;19.540;2024-01-27T11:08:33;947.40;409.60
70151;DHT22;57517;43.562;19.540;2024-01-27T11:11:00;896.20;435.20
70151;DHT22;57517;43.562;19.540;2024-01-27T11:13:29;870.90;435.20
70151;DHT22;57517;43.562;19.540;2024-01-27T11:15:55;870.50;460.80
70151;DHT22;57517;43.562;19.540;2024-01-27T11:18:22;768.20;512.00
70151;DHT22;57517;43.562;19.540;2024-01-27T11:20:48;768.40;512.00
70151;DHT22;57517;43.562;19.540;2024-01-27T11:23:14;768.70;486.40
70151;DHT22;57517;43.562;19.540;2024-01-27T11:25:44;717.50;537.60
70151;DHT22;57517;43.562;19.540;2024-01-27T11:28:15;614.70;614.40
70151;DHT22;57517;43.562;19.540;2024-01-27T11:30:48;512.70;640.00
70151;DHT22;57517;43.562;19.540;2024-01-27T11:33:14;461.30;742.40
70151;DHT22;57517;43.562;19.540;2024-01-27T11:35:40;410.10;819.20
70151;DHT22;57517;43.562;19.540;2024-01-27T11:38:06;384.20;870.40
70151;DHT22;57517;43.562;19.540;2024-01-27T11:40:32;384.10;921.60
70151;DHT22;57517;43.562;19.540;2024-01-27T11:43:00;359.10;921.60
70151;DHT22;57517;43.562;19.540;2024-01-27T11:45:27;333.50;972.80
70151;DHT22;57517;43.562;19.540;2024-01-27T11:47:55;333.50;972.80
70151;DHT22;57517;43.562;19.540;2024-01-27T11:50:22;307.80;972.80
70151;DHT22;57517;43.562;19.540;2024-01-27T11:52:48;307.70;972.80
70151;DHT22;57517;43.562;19.540;2024-01-27T11:55:14;307.70;972.80
70151;DHT22;57517;43.562;19.540;2024-01-27T11:57:44;307.40;1024.00
70151;DHT22;57517;43.562;19.540;2024-01-27T12:00:10;307.50;1024.00
70151;DHT22;57517;43.562;19.540;2024-01-27T12:02:39;307.30;1049.60
70151;DHT22;57517;43.562;19.540;2024-01-27T12:05:06;307.40;1049.60
70151;DHT22;57517;43.562;19.540;2024-01-27T12:07:32;307.50;1024.00
70151;DHT22;57517;43.562;19.540;2024-01-27T12:09:58;307.40;1024.00
70151;DHT22;57517;43.562;19.540;2024-01-27T12:12:24;307.60;1024.00
70151;DHT22;57517;43.562;19.540;2024-01-27T12:14:51;307.50;998.40
70151;DHT22;57517;43.562;19.540;2024-01-27T12:17:18;282.50;972.80
70151;DHT22;57517;43.562;19.540;2024-01-27T12:19:48;282.50;972.80
70151;DHT22;57517;43.562;19.540;2024-01-27T12:22:28;307.30;1024.00
70151;DHT22;57517;43.562;19.540;2024-01-27T12:25:08;282.40;972.80
70151;DHT22;57517;43.562;19.540;2024-01-27T12:27:35;282.10;972.80
70151;DHT22;57517;43.562;19.540;2024-01-27T12:30:02;282.10;972.80
70151;DHT22;57517;43.562;19.540;2024-01-27T12:32:27;281.80;998.40
70151;DHT22;57517;43.562;19.540;2024-01-27T12:34:54;282.10;998.40
70151;DHT22;57517;43.562;19.540;2024-01-27T12:37:21;282.20;998.40
70151;DHT22;57517;43.562;19.540;2024-01-27T12:39:47;282.20;972.80
70151;DHT22;57517;43.562;19.540;2024-01-27T12:42:16;282.40;998.40
70151;DHT22;57517;43.562;19.540;2024-01-27T12:44:43;282.40;998.40
70151;DHT22;57517;43.562;19.540;2024-01-27T12:47:12;282.40;972.80
70151;DHT22;57517;43.562;19.540;2024-01-27T12:49:39;282.20;947.20
70151;DHT22;57517;43.562;19.540;2024-01-27T12:52:06;282.00;947.20
70151;DHT22;57517;43.562;19.540;2024-01-27T12:54:32;281.90;972.80
70151;DHT22;57517;43.562;19.540;2024-01-27T12:56:58;281.90;972.80
70151;DHT22;57517;43.562;19.540;2024-01-27T12:59:26;282.00;972.80
70151;DHT22;57517;43.562;19.540;2024-01-27T13:01:52;282.00;972.80
70151;DHT22;57517;43.562;19.540;2024-01-27T13:04:18;282.00;972.80
70151;DHT22;57517;43.562;19.540;2024-01-27T13:06:44;281.80;947.20
70151;DHT22;57517;43.562;19.540;2024-01-27T13:09:10;281.60;972.80
70151;DHT22;57517;43.562;19.540;2024-01-27T13:11:39;281.70;947.20
70151;DHT22;57517;43.562;19.540;2024-01-27T13:14:05;281.60;972.80
70151;DHT22;57517;43.562;19.540;2024-01-27T13:16:32;281.60;947.20
70151;DHT22;57517;43.562;19.540;2024-01-27T13:18:58;281.80;947.20
70151;DHT22;57517;43.562;19.540;2024-01-27T13:21:24;281.80;947.20
70151;DHT22;57517;43.562;19.540;2024-01-27T13:23:49;281.60;972.80
70151;DHT22;57517;43.562;19.540;2024-01-27T13:26:18;281.60;947.20
70151;DHT22;57517;43.562;19.540;2024-01-27T13:28:45;256.80;921.60
70151;DHT22;57517;43.562;19.540;2024-01-27T13:31:11;256.80;947.20
70151;DHT22;57517;43.562;19.540;2024-01-27T13:33:36;256.80;947.20
70151;DHT22;57517;43.562;19.540;2024-01-27T13:36:03;256.60;921.60
70151;DHT22;57517;43.562;19.540;2024-01-27T13:38:28;256.60;896.00
70151;DHT22;57517;43.562;19.540;2024-01-27T13:40:54;256.50;896.00
70151;DHT22;57517;43.562;19.540;2024-01-27T13:43:20;256.30;921.60
70151;DHT22;57517;43.562;19.540;2024-01-27T13:45:46;256.20;896.00
70151;DHT22;57517;43.562;19.540;2024-01-27T13:48:13;256.20;896.00
70151;DHT22;57517;43.562;19.540;2024-01-27T13:50:39;256.30;896.00
70151;DHT22;57517;43.562;19.540;2024-01-27T13:53:04;256.40;896.00
70151;DHT22;57517;43.562;19.540;2024-01-27T13:55:31;256.40;896.00
70151;DHT22;57517;43.562;19.540;2024-01-27T13:57:57;256.30;870.40
70151;DHT22;57517;43.562;19.540;2024-01-27T14:00:23;256.20;870.40
70151;DHT22;57517;43.562;19.540;2024-01-27T14:02:49;256.20;844.80
70151;DHT22;57517;43.562;19.540;2024-01-27T14:05:14;256.00;844.80
70151;DHT22;57517;43.562;19.540;2024-01-27T14:07:40;256.00;870.40
70151;DHT22;57517;43.562;19.540;2024-01-27T14:10:06;231.20;844.80
70151;DHT22;57517;43.562;19.540;2024-01-27T14:12:32;231.20;870.40
70151;DHT22;57517;43.562;19.540;2024-01-27T14:15:06;231.20;870.40
70151;DHT22;57517;43.562;19.540;2024-01-27T14:17:33;231.20;870.40
70151;DHT22;57517;43.562;19.540;2024-01-27T14:20:00;231.20;896.00
70151;DHT22;57517;43.562;19.540;2024-01-27T14:22:26;231.30;896.00
70151;DHT22;57517;43.562;19.540;2024-01-27T14:24:52;231.30;896.00
70151;DHT22;57517;43.562;19.540;2024-01-27T14:27:18;231.20;870.40
70151;DHT22;57517;43.562;19.540;2024-01-27T14:29:52;231.10;870.40
70151;DHT22;57517;43.562;19.540;2024-01-27T14:32:18;231.10;896.00
70151;DHT22;57517;43.562;19.540;2024-01-27T14:34:43;231.20;896.00
70151;DHT22;57517;43.562;19.540;2024-01-27T14:37:10;231.20;896.00
70151;DHT22;57517;43.562;19.540;2024-01-27T14:39:35;231.10;896.00
70151;DHT22;57517;43.562;19.540;2024-01-27T14:42:02;231.10;896.00